createdAt,value
2018-04-15T10:00:11.076Z,39.55
2018-04-15T10:01:17.424Z,39.10
2018-04-15T10:02:20.878Z,38.97
2018-04-15T10:03:24.403Z,39.10
2018-04-15T10:04:27.942Z,38.92
2018-04-15T10:05:31.959Z,38.83
2018-04-15T10:06:35.444Z,38.79
2018-04-15T10:07:38.875Z,38.78
2018-04-15T10:08:42.430Z,38.69
2018-04-15T10:09:45.926Z,38.48
2018-04-15T10:10:49.410Z,38.44
2018-04-15T10:11:53.452Z,38.39
2018-04-15T10:12:57.038Z,38.38
2018-04-15T10:14:00.586Z,38.30
2018-04-15T10:15:04.107Z,38.28
2018-04-15T10:16:07.625Z,38.07
2018-04-15T10:17:11.197Z,38.28
2018-04-15T10:18:15.069Z,38.22
2018-04-15T10:19:19.349Z,38.08
2018-04-15T10:20:22.809Z,37.93
2018-04-15T10:21:26.255Z,37.97
2018-04-15T10:22:29.875Z,38.02
2018-04-15T10:23:33.443Z,38.10
2018-04-15T10:24:37.297Z,37.98
2018-04-15T10:25:40.849Z,38.03
2018-04-15T10:26:44.418Z,38.14
2018-04-15T10:27:48.013Z,38.12
2018-04-15T10:28:51.479Z,38.01
2018-04-15T10:29:54.980Z,37.90
2018-04-15T10:30:59.028Z,38.00
2018-04-15T10:32:04.062Z,38.22
2018-04-15T10:33:07.941Z,38.17
2018-04-15T10:34:11.526Z,38.25
2018-04-15T10:35:15.084Z,38.28
2018-04-15T10:36:18.703Z,38.35
2018-04-15T10:37:22.742Z,38.36
2018-04-15T10:38:26.319Z,38.34
2018-04-15T10:39:29.919Z,38.29
2018-04-15T10:40:33.660Z,38.20
2018-04-15T10:41:37.322Z,38.23
2018-04-15T10:42:40.933Z,38.23
2018-04-15T10:43:44.759Z,38.30
2018-04-15T10:44:48.280Z,38.38
2018-04-15T10:45:52.002Z,38.23
2018-04-15T10:46:56.970Z,38.23
2018-04-15T10:48:00.559Z,38.16
2018-04-15T10:49:04.221Z,38.20
2018-04-15T10:50:08.207Z,38.13
2018-04-15T10:51:11.807Z,38.27
2018-04-15T10:52:15.426Z,38.23
2018-04-15T10:53:18.920Z,38.17
2018-04-15T10:54:22.507Z,38.16
2018-04-15T10:55:26.200Z,38.08
2018-04-15T10:56:30.972Z,38.08
2018-04-15T10:57:34.529Z,38.09
2018-04-15T10:58:38.020Z,38.02
2018-04-15T10:59:41.595Z,37.93
2018-04-15T11:00:45.145Z,37.94
2018-04-15T11:01:48.699Z,38.07
2018-04-15T11:02:52.843Z,38.03
2018-04-15T11:03:56.398Z,38.02
2018-04-15T11:04:59.918Z,37.94
2018-04-15T11:06:03.408Z,38.13
2018-04-15T11:07:06.849Z,38.09
2018-04-15T11:08:10.375Z,38.07
2018-04-15T11:09:14.238Z,38.04
2018-04-15T11:10:17.814Z,37.94
2018-04-15T11:11:21.369Z,37.96
2018-04-15T11:12:24.958Z,37.97
2018-04-15T11:13:28.527Z,37.90
2018-04-15T11:14:32.099Z,37.90
2018-04-15T11:15:36.016Z,37.82
2018-04-15T11:16:39.519Z,37.89
2018-04-15T11:17:43.098Z,37.80
2018-04-15T11:18:46.587Z,37.67
2018-04-15T11:19:50.078Z,37.77
2018-04-15T11:20:53.690Z,37.74
2018-04-15T11:21:57.727Z,37.84
2018-04-15T11:23:01.200Z,37.86
2018-04-15T11:24:04.607Z,37.91
2018-04-15T11:25:08.027Z,37.92
2018-04-15T11:26:11.451Z,37.76
2018-04-15T11:27:14.937Z,37.83
2018-04-15T11:28:18.865Z,37.82
2018-04-15T11:29:22.328Z,37.77
2018-04-15T11:30:25.821Z,37.85
2018-04-15T11:31:29.333Z,37.81
2018-04-15T11:32:32.934Z,37.89
2018-04-15T11:33:36.994Z,37.81
2018-04-15T11:34:40.563Z,37.79
2018-04-15T11:35:44.770Z,37.56
2018-04-15T11:36:48.356Z,37.62
2018-04-15T11:37:51.925Z,37.74
2018-04-15T11:38:55.459Z,37.63
2018-04-15T11:39:59.421Z,37.72
2018-04-15T11:41:02.920Z,37.64
2018-04-15T11:42:06.509Z,37.75
2018-04-15T11:43:10.036Z,37.72
2018-04-15T11:44:13.563Z,37.81
2018-04-15T11:45:17.248Z,37.89
2018-04-15T11:46:21.217Z,37.88
2018-04-15T11:47:24.728Z,37.78
2018-04-15T11:48:28.291Z,37.76
2018-04-15T11:49:31.947Z,37.70
2018-04-15T11:50:35.488Z,37.63
2018-04-15T11:51:39.164Z,37.65
2018-04-15T11:52:42.920Z,37.78
2018-04-15T11:53:46.464Z,37.80
2018-04-15T11:54:50.009Z,37.73
2018-04-15T11:55:53.567Z,37.70
2018-04-15T11:56:57.095Z,37.67
2018-04-15T11:58:00.676Z,37.67
2018-04-15T11:59:04.684Z,37.79
2018-04-15T12:00:08.084Z,37.88
2018-04-15T12:01:11.597Z,37.87
2018-04-15T12:02:15.087Z,37.81
2018-04-15T12:03:18.588Z,37.83
2018-04-15T12:04:22.080Z,37.82
2018-04-15T12:05:25.938Z,37.79
2018-04-15T12:06:29.488Z,37.83
2018-04-15T12:07:32.983Z,37.87
2018-04-15T12:08:36.447Z,37.94
2018-04-15T12:09:39.919Z,38.03
2018-04-15T12:10:43.380Z,38.12
2018-04-15T12:11:49.210Z,37.94
2018-04-15T12:12:53.171Z,37.99
2018-04-15T12:13:56.857Z,37.93
2018-04-15T12:15:00.638Z,37.99
2018-04-15T12:16:04.201Z,38.05
2018-04-15T12:17:07.627Z,37.85
2018-04-15T12:18:11.474Z,37.82
2018-04-15T12:19:15.026Z,37.92
2018-04-15T12:20:18.800Z,37.94
2018-04-15T12:21:22.403Z,38.04
2018-04-15T12:22:25.909Z,38.21
2018-04-15T12:23:30.673Z,38.36
2018-04-15T12:24:34.689Z,38.40
2018-04-15T12:25:38.299Z,38.58
2018-04-15T12:26:41.936Z,38.66
2018-04-15T12:27:45.460Z,38.86
2018-04-15T12:28:49.085Z,38.33
2018-04-15T12:29:52.618Z,38.46
2018-04-15T12:30:56.833Z,38.63
2018-04-15T12:32:00.545Z,39.20
2018-04-15T12:33:03.947Z,38.98
2018-04-15T12:34:07.394Z,38.60
2018-04-15T12:35:10.875Z,38.95
2018-04-15T12:36:14.740Z,39.11
2018-04-15T12:37:18.826Z,39.04
2018-04-15T12:38:22.371Z,38.90
2018-04-15T12:39:25.867Z,38.75
2018-04-15T12:40:29.344Z,38.88
2018-04-15T12:41:32.844Z,38.80
2018-04-15T12:42:36.335Z,38.87
2018-04-15T12:43:40.164Z,38.99
2018-04-15T12:44:43.675Z,39.01
2018-04-15T12:45:47.191Z,38.92
2018-04-15T12:46:50.720Z,39.16
2018-04-15T12:47:55.260Z,39.02
2018-04-15T12:48:58.829Z,38.87
2018-04-15T12:50:02.819Z,38.84
2018-04-15T12:51:06.311Z,39.16
2018-04-15T12:52:09.819Z,39.03
2018-04-15T12:53:13.332Z,38.63
2018-04-15T12:54:16.819Z,39.17
2018-04-15T12:55:20.305Z,39.05
2018-04-15T12:56:24.282Z,39.00
2018-04-15T12:57:27.885Z,38.95
2018-04-15T12:58:31.345Z,39.11
2018-04-15T12:59:36.592Z,38.95
2018-04-15T13:00:40.089Z,38.87
2018-04-15T13:01:43.581Z,38.91
2018-04-15T13:02:47.711Z,38.99
2018-04-15T13:03:51.273Z,38.81
2018-04-15T13:04:55.106Z,38.79
2018-04-15T13:05:58.635Z,38.79
2018-04-15T13:07:02.272Z,38.90
2018-04-15T13:08:05.771Z,38.68
2018-04-15T13:09:09.641Z,38.78
2018-04-15T13:10:13.139Z,38.65
2018-04-15T13:11:16.554Z,38.57
2018-04-15T13:12:20.113Z,38.79
2018-04-15T13:13:23.621Z,38.71
2018-04-15T13:14:27.197Z,38.95
2018-04-15T13:15:31.239Z,38.80
2018-04-15T13:16:34.750Z,39.14
2018-04-15T13:17:38.319Z,38.87
2018-04-15T13:18:41.823Z,39.07
2018-04-15T13:19:45.360Z,38.98
2018-04-15T13:20:48.906Z,38.84
2018-04-15T13:21:52.845Z,38.62
2018-04-15T13:22:56.346Z,38.92
2018-04-15T13:23:59.998Z,38.87
2018-04-15T13:25:03.603Z,38.79
2018-04-15T13:26:07.208Z,38.56
2018-04-15T13:27:10.813Z,38.63
2018-04-15T13:28:14.681Z,38.98
2018-04-15T13:29:19.053Z,39.04
2018-04-15T13:30:22.558Z,38.82
2018-04-15T13:31:26.131Z,38.90
2018-04-15T13:32:29.831Z,38.96
2018-04-15T13:33:33.625Z,38.98
2018-04-15T13:34:37.428Z,38.65
2018-04-15T13:36:52.728Z,38.39
2018-04-15T13:37:56.226Z,38.51
2018-04-15T13:38:59.903Z,38.50
2018-04-15T13:40:03.441Z,38.50
2018-04-15T13:41:07.350Z,38.58
2018-04-15T13:42:10.878Z,38.60
2018-04-15T13:43:14.385Z,38.40
2018-04-15T13:44:17.911Z,38.58
2018-04-15T13:45:21.465Z,38.78
2018-04-15T13:46:25.076Z,38.56
2018-04-15T13:47:28.963Z,38.52
2018-04-15T13:48:32.605Z,38.66
2018-04-15T13:49:36.151Z,38.64
2018-04-15T13:50:39.693Z,38.65
2018-04-15T13:51:43.259Z,38.49
2018-04-15T13:52:47.205Z,38.66
2018-04-15T13:53:51.139Z,38.58
2018-04-15T13:54:54.672Z,38.55
2018-04-15T13:55:58.184Z,38.46
2018-04-15T13:57:01.654Z,38.58
2018-04-15T13:58:05.114Z,38.35
2018-04-15T13:59:08.572Z,38.51
2018-04-15T14:00:12.372Z,38.54
2018-04-15T14:01:16.445Z,38.46
2018-04-15T14:02:20.076Z,38.55
2018-04-15T14:03:23.587Z,38.44
2018-04-15T14:04:27.143Z,38.67
2018-04-15T14:05:31.371Z,38.63
2018-04-15T14:06:35.387Z,38.84
2018-04-15T14:07:38.910Z,38.62
2018-04-15T14:08:42.468Z,38.54
2018-04-15T14:09:46.083Z,38.68
2018-04-15T14:10:50.587Z,38.75
2018-04-15T14:11:54.195Z,38.75
2018-04-15T14:12:58.192Z,38.71
2018-04-15T14:14:01.736Z,38.73
2018-04-15T14:15:05.276Z,38.71
2018-04-15T14:16:08.802Z,38.74
2018-04-15T14:17:12.377Z,38.65
2018-04-15T14:18:15.975Z,38.69
2018-04-15T14:19:19.892Z,38.66
2018-04-15T14:20:23.520Z,38.63
2018-04-15T14:21:27.149Z,38.76
2018-04-15T14:22:30.758Z,38.70
2018-04-15T14:23:34.286Z,38.62
2018-04-15T14:24:37.851Z,38.65
2018-04-15T14:25:41.975Z,38.63
2018-04-15T14:26:45.659Z,38.60
2018-04-15T14:27:49.219Z,38.56
2018-04-15T14:28:52.827Z,38.50
2018-04-15T14:29:56.387Z,38.99
2018-04-15T14:30:59.925Z,38.65
2018-04-15T14:32:03.828Z,38.66
2018-04-15T14:33:07.800Z,38.47
2018-04-15T14:34:11.374Z,38.60
2018-04-15T14:35:14.904Z,38.60
2018-04-15T14:36:18.449Z,38.61
2018-04-15T14:37:22.010Z,38.55
2018-04-15T14:38:25.976Z,38.62
2018-04-15T14:39:29.555Z,38.59
2018-04-15T14:40:33.244Z,38.58
2018-04-15T14:41:36.916Z,38.50
2018-04-15T14:42:40.463Z,38.61
2018-04-15T14:43:43.973Z,38.54
2018-04-15T14:44:47.859Z,38.38
2018-04-15T14:45:51.411Z,38.50
2018-04-15T14:46:55.689Z,38.44
2018-04-15T14:47:59.198Z,38.54
2018-04-15T14:49:02.794Z,38.55
2018-04-15T14:50:06.326Z,38.54
2018-04-15T14:51:10.179Z,38.62
2018-04-15T14:52:13.770Z,38.61
2018-04-15T14:53:17.342Z,38.55
2018-04-15T14:54:20.856Z,38.55
2018-04-15T14:55:24.393Z,38.54
2018-04-15T14:56:27.904Z,38.49
2018-04-15T14:57:31.723Z,38.48
2018-04-15T14:58:35.256Z,38.59
2018-04-15T14:59:38.916Z,38.52
2018-04-15T15:00:42.454Z,38.45
2018-04-15T15:01:45.956Z,38.41
2018-04-15T15:02:49.462Z,38.49
2018-04-15T15:03:53.311Z,38.49
2018-04-15T15:04:56.925Z,38.49
2018-04-15T15:06:00.441Z,38.41
2018-04-15T15:07:04.052Z,38.38
2018-04-15T15:08:07.572Z,38.38
2018-04-15T15:09:11.066Z,38.44
2018-04-15T15:10:15.082Z,38.51
2018-04-15T15:11:19.430Z,38.56
2018-04-15T15:12:22.937Z,38.59
2018-04-15T15:13:26.530Z,38.55
2018-04-15T15:14:30.053Z,38.54
2018-04-15T15:15:33.599Z,38.50
2018-04-15T15:16:37.573Z,38.55
2018-04-15T15:17:41.086Z,38.64
2018-04-15T15:18:44.624Z,38.61
2018-04-15T15:19:48.158Z,38.50
2018-04-15T15:20:51.712Z,38.51
2018-04-15T15:21:55.272Z,38.41
2018-04-15T15:22:59.147Z,38.57
2018-04-15T15:24:02.778Z,38.44
2018-04-15T15:25:06.355Z,38.56
2018-04-15T15:26:09.876Z,38.47
2018-04-15T15:27:13.442Z,38.54
2018-04-15T15:28:17.048Z,38.58
2018-04-15T15:29:20.556Z,38.56
2018-04-15T15:30:24.004Z,38.53
2018-04-15T15:31:28.236Z,38.54
2018-04-15T15:32:31.808Z,38.64
2018-04-15T15:33:35.309Z,38.70
2018-04-15T15:34:39.141Z,38.74
2018-04-15T15:35:42.657Z,38.72
2018-04-15T15:36:46.159Z,38.81
2018-04-15T15:37:49.701Z,38.87
2018-04-15T15:38:53.233Z,38.80
2018-04-15T15:39:56.782Z,38.83
2018-04-15T15:41:00.681Z,38.79
2018-04-15T15:42:04.121Z,38.91
2018-04-15T15:43:07.631Z,38.86
2018-04-15T15:44:11.146Z,38.73
2018-04-15T15:45:14.860Z,38.80
2018-04-15T15:46:18.481Z,38.76
2018-04-15T15:47:22.371Z,38.65
2018-04-15T15:48:25.863Z,38.74
2018-04-15T15:49:29.420Z,38.63
2018-04-15T15:50:32.852Z,38.62
2018-04-15T15:51:36.267Z,38.76
2018-04-15T15:52:39.672Z,38.74
2018-04-15T15:53:43.550Z,38.70
2018-04-15T15:54:46.994Z,38.73
2018-04-15T15:55:50.385Z,38.68
2018-04-15T15:56:53.860Z,38.60
2018-04-15T15:57:57.350Z,38.58
2018-04-15T15:59:00.879Z,38.57
2018-04-15T16:00:04.915Z,38.60
2018-04-15T16:01:08.407Z,38.61
2018-04-15T16:02:12.157Z,38.69
2018-04-15T16:03:15.667Z,38.69
2018-04-15T16:04:19.259Z,38.76
2018-04-15T16:05:22.768Z,38.68
2018-04-15T16:06:26.654Z,38.78
2018-04-15T16:07:30.200Z,38.69
2018-04-15T16:08:33.708Z,38.91
2018-04-15T16:09:37.256Z,38.84
2018-04-15T16:10:40.815Z,38.84
2018-04-15T16:11:44.323Z,38.84
2018-04-15T16:12:47.951Z,38.97
2018-04-15T16:13:51.406Z,38.94
2018-04-15T16:14:55.017Z,38.90
2018-04-15T16:15:58.484Z,38.98
2018-04-15T16:17:01.991Z,39.03
2018-04-15T16:18:05.443Z,38.93
2018-04-15T16:19:08.897Z,39.01
2018-04-15T16:20:12.424Z,38.96
2018-04-15T16:21:15.928Z,38.86
2018-04-15T16:22:19.434Z,38.91
2018-04-15T16:23:23.280Z,38.98
2018-04-15T16:24:27.002Z,39.02
2018-04-15T16:25:30.518Z,39.03
2018-04-15T16:26:34.016Z,38.96
2018-04-15T16:27:37.991Z,38.94
2018-04-15T16:28:41.491Z,39.03
2018-04-15T16:29:46.349Z,38.84
2018-04-15T16:30:49.872Z,38.95
2018-04-15T16:31:53.428Z,38.85
2018-04-15T16:32:56.918Z,38.79
2018-04-15T16:34:00.774Z,38.86
2018-04-15T16:35:04.305Z,38.95
2018-04-15T16:36:08.201Z,39.01
2018-04-15T16:37:11.712Z,39.07
2018-04-15T16:38:15.272Z,39.17
2018-04-15T16:39:18.787Z,39.18
2018-04-15T16:40:22.327Z,39.05
2018-04-15T16:41:25.841Z,39.42
2018-04-15T16:42:29.734Z,39.18
2018-04-15T16:43:33.249Z,39.26
2018-04-15T16:44:36.756Z,39.40
2018-04-15T16:45:40.231Z,39.38
2018-04-15T16:46:43.717Z,39.46
2018-04-15T16:47:47.305Z,39.33
2018-04-15T16:48:51.225Z,39.28
2018-04-15T16:49:54.723Z,39.36
2018-04-15T16:50:58.259Z,39.30
2018-04-15T16:52:01.774Z,39.25
2018-04-15T16:53:05.293Z,39.30
2018-04-15T16:54:08.789Z,39.34
2018-04-15T16:55:12.909Z,39.33
2018-04-15T16:56:16.414Z,39.58
2018-04-15T16:57:20.014Z,39.52
2018-04-15T16:58:23.511Z,39.64
2018-04-15T16:59:26.899Z,39.59
2018-04-15T17:00:30.440Z,39.52
2018-04-15T17:01:34.428Z,39.48
2018-04-15T17:02:38.050Z,39.33
2018-04-15T17:03:41.572Z,39.11
2018-04-15T17:04:45.088Z,39.06
2018-04-15T17:05:48.578Z,39.03
2018-04-15T17:06:52.610Z,39.05
2018-04-15T17:07:56.614Z,39.02
2018-04-15T17:09:00.118Z,38.92
2018-04-15T17:10:03.605Z,38.99
2018-04-15T17:11:07.101Z,39.23
2018-04-15T17:12:10.621Z,39.21
2018-04-15T17:13:14.192Z,39.16
2018-04-15T17:14:18.022Z,39.16
2018-04-15T17:15:21.972Z,39.21
2018-04-15T17:16:25.538Z,39.25
2018-04-15T17:17:29.412Z,39.22
2018-04-15T17:18:32.840Z,39.29
2018-04-15T17:19:36.220Z,39.19
2018-04-15T17:20:40.000Z,39.27
2018-04-15T17:21:43.521Z,39.25
2018-04-15T17:22:47.128Z,39.27
2018-04-15T17:23:50.643Z,39.16
2018-04-15T17:24:54.178Z,39.13
2018-04-15T17:25:57.752Z,39.19
2018-04-15T17:27:01.569Z,39.03
2018-04-15T17:28:04.967Z,39.09
2018-04-15T17:29:08.420Z,39.26
2018-04-15T17:30:11.951Z,39.28
2018-04-15T17:31:15.468Z,39.34
2018-04-15T17:32:18.989Z,39.35
2018-04-15T17:33:22.796Z,39.08
2018-04-15T17:34:26.690Z,39.06
2018-04-15T17:35:30.181Z,39.14
2018-04-15T17:36:33.764Z,39.07
2018-04-15T17:37:37.279Z,39.14
2018-04-15T17:38:40.784Z,39.10
2018-04-15T17:39:44.583Z,39.05
2018-04-15T17:40:48.118Z,39.07
2018-04-15T17:41:51.732Z,39.12
2018-04-15T17:42:55.200Z,39.08
2018-04-15T17:43:58.728Z,39.07
2018-04-15T17:45:02.770Z,39.07
2018-04-15T17:46:06.618Z,39.06
2018-04-15T17:52:37.974Z,39.42
2018-04-15T17:53:41.467Z,39.48
2018-04-15T17:54:44.973Z,39.44
2018-04-15T17:55:48.542Z,39.17
2018-04-15T17:56:52.034Z,39.12
2018-04-15T17:57:55.880Z,39.13
2018-04-15T17:58:59.559Z,39.19
2018-04-15T18:00:03.232Z,39.10
2018-04-15T18:01:06.927Z,39.14
2018-04-15T18:02:10.500Z,39.11
2018-04-15T18:03:13.976Z,38.93
2018-04-15T18:04:17.736Z,39.09
2018-04-15T18:05:21.209Z,39.11
2018-04-15T18:06:24.779Z,39.05
2018-04-15T18:07:28.620Z,39.18
2018-04-15T18:08:32.095Z,39.18
2018-04-15T18:09:35.541Z,39.20
2018-04-15T18:10:39.319Z,39.13
2018-04-15T18:11:42.764Z,39.17
2018-04-15T18:12:46.203Z,39.08
2018-04-15T18:13:49.739Z,39.01
2018-04-15T18:14:53.239Z,39.04
2018-04-15T18:15:56.840Z,39.06
2018-04-15T18:17:00.871Z,38.97
2018-04-15T18:18:04.376Z,39.16
2018-04-15T18:19:07.911Z,38.97
2018-04-15T18:20:11.514Z,39.07
2018-04-15T18:21:15.070Z,39.11
2018-04-15T18:22:19.596Z,39.00
2018-04-15T18:23:23.471Z,39.04
2018-04-15T18:24:26.967Z,39.02
2018-04-15T18:25:30.457Z,39.02
2018-04-15T18:26:34.024Z,39.00
2018-04-15T18:27:37.560Z,38.95
2018-04-15T18:28:41.099Z,38.89
2018-04-15T18:29:45.049Z,38.98
2018-04-15T18:30:48.583Z,38.95
2018-04-15T18:31:52.189Z,38.93
2018-04-15T18:32:56.409Z,38.90
2018-04-15T18:33:59.930Z,38.94
2018-04-15T18:35:04.919Z,38.80
2018-04-15T18:36:08.732Z,38.90
2018-04-15T18:37:12.235Z,38.86
2018-04-15T18:38:15.755Z,38.83
2018-04-15T18:39:19.262Z,38.88
2018-04-15T18:40:22.783Z,38.90
2018-04-15T18:41:26.273Z,38.82
2018-04-15T18:42:30.144Z,38.92
2018-04-15T18:43:33.614Z,38.87
2018-04-15T18:44:37.143Z,38.86
2018-04-15T18:45:40.773Z,38.85
2018-04-15T18:46:44.322Z,38.89
2018-04-15T18:47:48.219Z,38.91
2018-04-15T18:48:52.051Z,38.83
2018-04-15T18:49:55.784Z,38.80
2018-04-15T18:50:59.589Z,38.88
2018-04-15T18:52:03.177Z,38.78
2018-04-15T18:53:06.775Z,38.86
2018-04-15T18:54:10.486Z,38.85
2018-04-15T18:55:15.737Z,38.92
2018-04-15T18:56:19.219Z,38.84
2018-04-15T18:57:22.795Z,38.84
2018-04-15T18:58:26.298Z,38.90
2018-04-15T18:59:29.882Z,38.87
2018-04-15T19:00:33.548Z,38.92
2018-04-15T19:01:37.513Z,38.97
2018-04-15T19:02:41.072Z,38.88
2018-04-15T19:03:44.580Z,38.78
2018-04-15T19:04:48.106Z,38.85
2018-04-15T19:05:52.280Z,38.69
2018-04-15T19:06:55.713Z,38.67
2018-04-15T19:07:59.609Z,38.77
2018-04-15T19:09:03.145Z,38.70
2018-04-15T19:10:07.067Z,38.65
2018-04-15T19:11:10.599Z,38.62
2018-04-15T19:12:14.175Z,38.63
2018-04-15T19:13:18.682Z,38.73
2018-04-15T19:14:22.590Z,38.69
2018-04-15T19:15:26.177Z,38.74
2018-04-15T19:16:29.760Z,38.76
2018-04-15T19:17:33.295Z,38.74
2018-04-15T19:18:37.616Z,38.76
2018-04-15T19:19:41.158Z,38.82
2018-04-15T19:20:45.123Z,38.93
2018-04-15T19:21:48.753Z,38.81
2018-04-15T19:22:52.339Z,38.80
2018-04-15T19:23:56.601Z,38.62
2018-04-15T19:25:00.172Z,38.77
2018-04-15T19:26:03.646Z,38.73
2018-04-15T19:27:07.384Z,38.76
2018-04-15T19:28:11.094Z,38.73
2018-04-15T19:29:14.568Z,38.78
2018-04-15T19:30:18.170Z,38.67
2018-04-15T19:31:21.793Z,38.71
2018-04-15T19:32:25.820Z,38.55
2018-04-15T19:33:29.710Z,38.58
2018-04-15T19:34:33.251Z,38.63
2018-04-15T19:35:36.836Z,38.59
2018-04-15T19:36:40.286Z,38.66
2018-04-15T19:37:43.750Z,38.69
2018-04-15T19:38:47.477Z,38.75
2018-04-15T19:39:51.874Z,38.81
2018-04-15T19:40:55.476Z,38.80
2018-04-15T19:41:59.070Z,38.86
2018-04-15T19:43:02.528Z,38.79
2018-04-15T19:44:06.069Z,38.79
2018-04-15T19:45:09.904Z,38.91
2018-04-15T19:46:13.734Z,38.76
2018-04-15T19:47:17.361Z,38.77
2018-04-15T19:48:20.945Z,38.74
2018-04-15T19:49:24.524Z,38.76
2018-04-15T19:50:28.184Z,38.77
2018-04-15T19:51:31.799Z,38.69
2018-04-15T19:52:35.555Z,38.77
2018-04-15T19:53:38.990Z,38.76
2018-04-15T19:54:42.511Z,38.72
2018-04-15T19:55:46.048Z,38.66
2018-04-15T19:56:49.615Z,38.63
2018-04-15T19:57:53.241Z,38.67
2018-04-15T19:58:56.767Z,38.59
2018-04-15T20:00:00.265Z,38.56
2018-04-15T20:01:03.772Z,38.59
2018-04-15T20:02:07.226Z,38.63
2018-04-15T20:03:10.758Z,38.55
2018-04-15T20:04:14.580Z,38.62
2018-04-15T20:05:18.027Z,38.63
2018-04-15T20:06:21.546Z,38.69
2018-04-15T20:07:25.097Z,38.59
2018-04-15T20:08:28.672Z,38.59
2018-04-15T20:09:32.180Z,38.60
2018-04-15T20:10:35.724Z,38.55
2018-04-15T20:11:39.281Z,38.58
2018-04-15T20:12:42.835Z,38.54
2018-04-15T20:13:46.352Z,38.60
2018-04-15T20:14:50.160Z,38.55
2018-04-15T20:15:53.739Z,38.55
2018-04-15T20:16:57.306Z,38.54
2018-04-15T20:18:00.905Z,38.57
2018-04-15T20:19:04.424Z,38.54
2018-04-15T20:20:07.846Z,38.51
2018-04-15T20:21:11.642Z,38.50
2018-04-15T20:22:15.445Z,38.51
2018-04-15T20:23:18.959Z,38.48
2018-04-15T20:24:22.542Z,38.44
2018-04-15T20:25:26.043Z,38.49
2018-04-15T20:26:29.620Z,38.48
2018-04-15T20:27:33.468Z,38.49
2018-04-15T20:28:36.946Z,38.46
2018-04-15T20:29:40.457Z,38.45
2018-04-15T20:30:43.995Z,38.45
2018-04-15T20:31:47.597Z,38.50
2018-04-15T20:32:51.119Z,38.45
2018-04-15T20:33:54.883Z,38.48
2018-04-15T20:34:58.529Z,38.45
2018-04-15T20:36:02.140Z,38.44
2018-04-15T20:37:05.665Z,38.47
2018-04-15T20:38:09.236Z,38.65
2018-04-15T20:39:13.788Z,38.61
2018-04-15T20:40:17.323Z,38.55
2018-04-15T20:41:20.965Z,38.60
2018-04-15T20:42:25.131Z,38.58
2018-04-15T20:43:28.533Z,38.57
2018-04-15T20:44:31.954Z,38.52
2018-04-15T20:45:35.665Z,38.50
2018-04-15T20:46:39.165Z,38.51
2018-04-15T20:47:42.663Z,38.49
2018-04-15T20:48:46.128Z,38.50
2018-04-15T20:49:49.700Z,38.52
2018-04-15T20:50:53.210Z,38.54
2018-04-15T20:51:57.196Z,38.52
2018-04-15T20:53:00.677Z,38.55
2018-04-15T20:54:04.205Z,38.65
2018-04-15T20:55:07.746Z,38.55
2018-04-15T20:56:11.338Z,38.52
2018-04-15T20:57:14.944Z,38.45
2018-04-15T20:58:18.762Z,38.50
2018-04-15T20:59:22.267Z,38.50
2018-04-15T21:00:25.791Z,38.49
2018-04-15T21:01:29.309Z,38.48
2018-04-15T21:02:32.828Z,38.50
2018-04-15T21:03:36.429Z,38.44
2018-04-15T21:04:40.836Z,38.46
2018-04-15T21:05:45.756Z,38.49
2018-04-15T21:06:49.583Z,38.35
2018-04-15T21:07:53.103Z,38.14
2018-04-15T21:08:56.672Z,38.17
2018-04-15T21:10:01.032Z,38.14
2018-04-15T21:11:04.805Z,38.15
2018-04-15T21:12:08.253Z,38.20
2018-04-15T21:13:11.772Z,38.23
2018-04-15T21:14:15.315Z,38.19
2018-04-15T21:15:18.845Z,38.23
2018-04-15T21:16:22.372Z,38.22
2018-04-15T21:17:26.190Z,38.16
2018-04-15T21:18:30.170Z,38.11
2018-04-15T21:19:35.434Z,38.17
2018-04-15T21:20:38.904Z,38.10
2018-04-15T21:21:42.370Z,38.20
2018-04-15T21:22:45.860Z,38.06
2018-04-15T21:23:49.758Z,38.17
2018-04-15T21:24:53.278Z,38.26
2018-04-15T21:25:56.809Z,38.16
2018-04-15T21:27:00.355Z,38.18
2018-04-15T21:28:03.911Z,38.22
2018-04-15T21:29:07.438Z,38.19
2018-04-15T21:30:11.357Z,38.30
2018-04-15T21:31:15.051Z,38.25
2018-04-15T21:32:18.575Z,38.32
2018-04-15T21:33:23.072Z,38.29
2018-04-15T21:34:26.593Z,38.40
2018-04-15T21:35:30.076Z,38.38
2018-04-15T21:36:34.143Z,38.30
2018-04-15T21:37:38.481Z,38.74
2018-04-15T21:38:42.037Z,38.35
2018-04-15T21:39:45.765Z,38.23
2018-04-15T21:40:49.230Z,38.28
2018-04-15T21:41:53.099Z,38.34
2018-04-15T21:42:57.772Z,38.24
2018-04-15T21:44:01.572Z,38.21
2018-04-15T21:45:05.179Z,38.16
2018-04-15T21:46:08.774Z,38.16
2018-04-15T21:47:12.461Z,38.26
2018-04-15T21:48:16.407Z,38.22
2018-04-15T21:49:19.998Z,38.17
2018-04-15T21:50:23.569Z,38.20
